Time;durP1;ratioP1;P1;durP2;ratioP2;P2;SDS_P1;SDS_P2;PMS_P1;PMS_P2;Temp;Humidity;BMP_temperature;BMP_pressure;BME280_temperature;BME280_humidity;BME280_pressure;Samples;Min_cycle;Max_cycle;Signal;HPM_P1;HPM_P2
2021/08/14 00:00:36;;;;;;;8.10;7.30;;;18.90;99.90;;;;;;5057844;28;20465;-94
2021/08/14 00:03:02;;;;;;;7.07;6.40;;;18.80;99.90;;;;;;5057680;28;20436;-93
2021/08/14 00:05:31;;;;;;;7.30;6.60;;;18.80;99.90;;;;;;5057678;28;20440;-93
2021/08/14 00:07:57;;;;;;;9.10;7.53;;;18.80;99.90;;;;;;5057404;28;20451;-93
2021/08/14 00:10:24;;;;;;;8.60;6.40;;;18.70;99.90;;;;;;5057546;28;20468;-93
2021/08/14 00:12:51;;;;;;;8.33;7.40;;;18.70;99.90;;;;;;5057476;28;20535;-94
2021/08/14 00:15:18;;;;;;;9.57;6.90;;;18.70;99.90;;;;;;5057587;28;20516;-93
2021/08/14 00:17:44;;;;;;;8.30;7.13;;;18.60;99.90;;;;;;5057237;28;20503;-93
2021/08/14 00:20:12;;;;;;;8.60;7.37;;;18.60;99.90;;;;;;5057428;28;20480;-94
2021/08/14 00:22:43;;;;;;;8.50;6.60;;;18.60;99.90;;;;;;5057412;28;20475;-94
2021/08/14 00:25:10;;;;;;;8.63;6.47;;;18.50;99.90;;;;;;5057432;28;20455;-93
2021/08/14 00:27:37;;;;;;;8.07;7.27;;;18.50;99.90;;;;;;5057310;28;20504;-93
2021/08/14 00:30:05;;;;;;;7.30;6.60;;;18.50;99.90;;;;;;5056617;28;20460;-93
2021/08/14 00:32:32;;;;;;;8.27;7.30;;;18.50;99.90;;;;;;5057300;28;20475;-93
2021/08/14 00:34:59;;;;;;;8.10;7.30;;;18.50;99.90;;;;;;5057134;28;20452;-94
2021/08/14 00:37:26;;;;;;;7.57;6.87;;;18.40;99.90;;;;;;5055890;28;20508;-93
2021/08/14 00:39:54;;;;;;;9.00;7.00;;;18.40;99.90;;;;;;5057162;28;20479;-93
2021/08/14 00:42:21;;;;;;;8.00;7.20;;;18.40;99.90;;;;;;5056734;28;20479;-92
2021/08/14 00:44:47;;;;;;;8.67;6.80;;;18.40;99.90;;;;;;5057128;28;20471;-94
2021/08/14 00:47:14;;;;;;;8.00;7.20;;;18.40;99.90;;;;;;5056709;28;20436;-93
2021/08/14 00:49:41;;;;;;;7.43;6.60;;;18.30;99.90;;;;;;5056826;28;20498;-93
2021/08/14 00:52:08;;;;;;;7.83;6.90;;;18.30;99.90;;;;;;5056957;28;20440;-94
2021/08/14 00:54:35;;;;;;;8.17;7.30;;;18.20;99.90;;;;;;5056940;28;20444;-94
2021/08/14 00:57:03;;;;;;;8.07;7.30;;;18.20;99.90;;;;;;5056048;28;20436;-94
2021/08/14 00:59:30;;;;;;;8.33;7.50;;;18.20;99.90;;;;;;5055125;28;20543;-94
2021/08/14 01:01:57;;;;;;;7.53;6.73;;;18.20;99.90;;;;;;5054916;28;20478;-93
2021/08/14 01:04:24;;;;;;;7.47;6.77;;;18.10;99.90;;;;;;5054978;28;20495;-93
2021/08/14 01:06:51;;;;;;;8.00;7.20;;;18.10;99.90;;;;;;5056638;28;20504;-93
2021/08/14 01:09:18;;;;;;;9.10;7.50;;;18.10;99.90;;;;;;5056033;28;20468;-93
2021/08/14 01:11:45;;;;;;;7.80;7.00;;;18.10;99.90;;;;;;5056630;28;20442;-93
2021/08/14 01:14:14;;;;;;;7.70;6.60;;;18.10;99.90;;;;;;5056511;28;20452;-93
2021/08/14 01:16:41;;;;;;;11.37;7.13;;;18.00;99.90;;;;;;5056782;28;20531;-93
2021/08/14 01:19:08;;;;;;;7.97;6.40;;;18.00;99.90;;;;;;5055957;28;20535;-92
2021/08/14 01:21:35;;;;;;;8.27;7.17;;;18.00;99.90;;;;;;5056516;28;20446;-93
2021/08/14 01:24:04;;;;;;;7.27;6.60;;;18.00;99.90;;;;;;5056176;28;20444;-93
2021/08/14 01:26:32;;;;;;;8.00;7.20;;;18.00;99.90;;;;;;5056357;28;20484;-94
2021/08/14 01:29:00;;;;;;;8.33;7.47;;;18.00;99.90;;;;;;5056118;28;20594;-93
2021/08/14 01:31:27;;;;;;;7.83;6.20;;;18.00;99.90;;;;;;5056213;28;20483;-94
2021/08/14 01:33:55;;;;;;;7.87;6.90;;;18.00;99.90;;;;;;5056182;28;20453;-94
2021/08/14 01:36:22;;;;;;;7.90;7.10;;;18.00;99.90;;;;;;5056270;28;20455;-93
2021/08/14 01:38:51;;;;;;;7.20;6.33;;;17.90;99.90;;;;;;5056123;28;20472;-94
2021/08/14 01:41:19;;;;;;;7.53;6.83;;;17.90;99.90;;;;;;5056367;28;20507;-93
2021/08/14 01:43:58;;;;;;;7.20;6.50;;;17.90;99.90;;;;;;5056291;28;20452;-93
2021/08/14 01:46:28;;;;;;;7.83;7.03;;;17.90;99.90;;;;;;5056165;28;20539;-94
2021/08/14 01:48:55;;;;;;;10.00;6.87;;;17.80;99.90;;;;;;5057336;28;20535;-94
2021/08/14 01:51:21;;;;;;;7.30;6.60;;;17.80;99.90;;;;;;5060306;28;20503;-93
2021/08/14 01:53:49;;;;;;;7.50;6.80;;;17.80;99.90;;;;;;5060306;28;20460;-94
2021/08/14 01:56:17;;;;;;;7.33;6.63;;;17.80;99.90;;;;;;5060408;28;20472;-94
2021/08/14 01:58:43;;;;;;;10.03;7.90;;;17.80;99.90;;;;;;5059833;28;20543;-93
2021/08/14 02:01:11;;;;;;;7.67;6.87;;;17.80;99.90;;;;;;5060131;28;20432;-92
2021/08/14 02:03:43;;;;;;;6.73;6.13;;;17.80;99.90;;;;;;5060283;28;20440;-93
2021/08/14 02:06:10;;;;;;;7.87;7.07;;;17.80;99.90;;;;;;5059969;28;21054;-94
2021/08/14 02:08:37;;;;;;;7.83;7.03;;;17.70;99.90;;;;;;5059964;28;20532;-94
2021/08/14 02:11:11;;;;;;;9.00;7.27;;;17.70;99.90;;;;;;5059846;28;20470;-94
2021/08/14 02:13:38;;;;;;;7.90;7.10;;;17.70;99.90;;;;;;5059566;28;20440;-93
2021/08/14 02:16:05;;;;;;;7.50;6.70;;;17.70;99.90;;;;;;5059803;28;20468;-94
2021/08/14 02:18:32;;;;;;;6.87;6.27;;;17.70;99.90;;;;;;5059537;28;20548;-92
2021/08/14 02:21:00;;;;;;;7.57;6.77;;;17.60;99.90;;;;;;5059824;28;20444;-95
2021/08/14 02:23:27;;;;;;;9.53;7.50;;;17.60;99.90;;;;;;5059618;28;20483;-93
2021/08/14 02:25:56;;;;;;;7.43;6.67;;;17.60;99.90;;;;;;5059884;28;20495;-93
2021/08/14 02:28:23;;;;;;;7.40;6.60;;;17.60;99.90;;;;;;5059293;28;20456;-94
2021/08/14 02:30:50;;;;;;;8.00;7.20;;;17.60;99.90;;;;;;5059594;28;20552;-95
2021/08/14 02:33:17;;;;;;;7.80;6.93;;;17.60;99.90;;;;;;5059650;28;20503;-94
2021/08/14 02:35:45;;;;;;;8.53;7.20;;;17.50;99.90;;;;;;5059921;28;20511;-94
2021/08/14 02:38:13;;;;;;;10.13;7.10;;;17.50;99.90;;;;;;5059471;28;20479;-95
2021/08/14 02:40:40;;;;;;;7.30;6.60;;;17.40;99.90;;;;;;5059571;28;20468;-94
2021/08/14 02:43:06;;;;;;;7.27;6.57;;;17.40;99.90;;;;;;5059321;28;20515;-93
2021/08/14 02:45:34;;;;;;;10.33;7.60;;;17.40;99.90;;;;;;5059430;28;20464;-93
2021/08/14 02:48:01;;;;;;;7.93;7.20;;;17.40;99.90;;;;;;5059223;28;20515;-93
2021/08/14 02:50:29;;;;;;;8.10;7.40;;;17.40;99.90;;;;;;5059116;28;20486;-95
2021/08/14 02:52:56;;;;;;;7.90;7.20;;;17.40;99.90;;;;;;5059124;28;20478;-94
2021/08/14 02:55:24;;;;;;;7.60;6.83;;;17.40;99.90;;;;;;5059053;28;20446;-94
2021/08/14 02:57:52;;;;;;;8.60;6.63;;;17.40;99.90;;;;;;5058414;28;20439;-93
2021/08/14 03:00:19;;;;;;;7.27;6.57;;;17.30;99.90;;;;;;5057624;28;20471;-93
2021/08/14 03:02:48;;;;;;;7.60;6.90;;;17.30;99.90;;;;;;5058815;28;20437;-94
2021/08/14 03:05:15;;;;;;;8.80;6.70;;;17.30;99.90;;;;;;5058995;28;20460;-95
2021/08/14 03:07:44;;;;;;;10.70;6.67;;;17.30;99.90;;;;;;5058776;28;20524;-95
2021/08/14 03:10:11;;;;;;;7.10;6.40;;;17.30;99.90;;;;;;5058687;28;20483;-93
2021/08/14 03:12:40;;;;;;;8.63;6.73;;;17.30;99.90;;;;;;5058964;28;20445;-94
2021/08/14 03:15:08;;;;;;;7.80;6.90;;;17.20;99.90;;;;;;5058740;28;20463;-94
2021/08/14 03:17:37;;;;;;;7.70;6.87;;;17.20;99.90;;;;;;5058394;28;20455;-95
2021/08/14 03:20:05;;;;;;;8.03;6.70;;;17.20;99.90;;;;;;5058575;28;20479;-93
2021/08/14 03:22:32;;;;;;;9.63;6.87;;;17.20;99.90;;;;;;5058437;28;20440;-95
2021/08/14 03:24:59;;;;;;;7.33;6.47;;;17.20;99.90;;;;;;5058588;28;20441;-94
2021/08/14 03:27:26;;;;;;;7.97;7.17;;;17.20;99.90;;;;;;5057899;28;20445;-93
2021/08/14 03:29:54;;;;;;;7.33;6.63;;;17.20;99.90;;;;;;5058102;28;20480;-93
2021/08/14 03:32:21;;;;;;;11.13;7.13;;;17.20;99.90;;;;;;5057966;28;20524;-93
2021/08/14 03:34:47;;;;;;;8.47;7.20;;;17.20;99.90;;;;;;5058235;28;21014;-93
2021/08/14 03:37:14;;;;;;;9.30;7.17;;;17.20;99.90;;;;;;5057922;28;20468;-94
2021/08/14 03:39:41;;;;;;;7.33;6.43;;;17.10;99.90;;;;;;5058072;28;20559;-93
2021/08/14 03:42:08;;;;;;;9.80;6.80;;;17.10;99.90;;;;;;5058006;28;20451;-93
2021/08/14 03:44:36;;;;;;;7.07;6.37;;;17.10;99.90;;;;;;5057902;28;20444;-94
2021/08/14 03:47:05;;;;;;;8.80;7.07;;;17.10;99.90;;;;;;5057901;28;20797;-94
2021/08/14 03:49:32;;;;;;;7.33;6.57;;;17.00;99.90;;;;;;5056517;28;20488;-93
2021/08/14 03:51:59;;;;;;;7.60;6.43;;;17.00;99.90;;;;;;5056576;28;20536;-94
2021/08/14 03:54:25;;;;;;;7.47;6.73;;;17.00;99.90;;;;;;5056270;28;20504;-93
2021/08/14 03:56:54;;;;;;;7.77;6.80;;;17.00;99.90;;;;;;5056131;28;20539;-94
2021/08/14 03:59:20;;;;;;;9.03;7.33;;;17.00;99.90;;;;;;5119469;22;20506;-71
2021/08/14 04:01:47;;;;;;;10.37;6.33;;;17.00;99.90;;;;;;5030268;28;20453;-71
2021/08/14 04:04:15;;;;;;;7.30;6.60;;;17.00;99.90;;;;;;5030600;28;20483;-71
2021/08/14 04:06:42;;;;;;;7.53;6.73;;;16.90;99.90;;;;;;5030886;28;20491;-71
2021/08/14 04:09:09;;;;;;;7.43;6.83;;;16.90;99.90;;;;;;5030510;28;20464;-71
2021/08/14 04:11:35;;;;;;;8.60;6.97;;;16.90;99.90;;;;;;5030737;28;20452;-72
2021/08/14 04:14:02;;;;;;;7.40;6.57;;;16.90;99.90;;;;;;5030644;28;20822;-71
2021/08/14 04:16:29;;;;;;;8.87;7.93;;;16.90;99.90;;;;;;5030836;28;20488;-71
2021/08/14 04:18:56;;;;;;;7.70;6.70;;;16.90;99.90;;;;;;5030696;28;20464;-72
2021/08/14 04:21:24;;;;;;;8.00;7.20;;;16.90;99.90;;;;;;5030710;28;20463;-71
2021/08/14 04:23:50;;;;;;;10.53;6.83;;;16.90;99.90;;;;;;5030480;28;20460;-71
2021/08/14 04:26:17;;;;;;;9.77;6.97;;;16.90;99.90;;;;;;5030471;28;20488;-71
2021/08/14 04:28:44;;;;;;;7.63;6.80;;;16.80;99.90;;;;;;5029985;28;20460;-72
2021/08/14 04:31:11;;;;;;;7.20;6.60;;;16.80;99.90;;;;;;5030203;28;20488;-72
2021/08/14 04:33:38;;;;;;;8.13;6.73;;;16.80;99.90;;;;;;5029939;28;20835;-69
2021/08/14 04:36:05;;;;;;;7.70;6.87;;;16.80;99.90;;;;;;5029482;28;20484;-69
2021/08/14 04:38:33;;;;;;;7.80;7.10;;;16.80;99.90;;;;;;5029334;28;20456;-69
2021/08/14 04:41:00;;;;;;;7.67;6.97;;;16.80;99.90;;;;;;5029323;28;20456;-69
2021/08/14 04:43:27;;;;;;;7.83;7.03;;;16.80;99.90;;;;;;5029478;28;20815;-69
2021/08/14 04:45:54;;;;;;;8.13;7.17;;;16.80;99.90;;;;;;5028985;28;20492;-69
2021/08/14 04:48:20;;;;;;;9.00;6.87;;;16.80;99.90;;;;;;5029095;28;20467;-69
2021/08/14 04:50:50;;;;;;;7.40;6.70;;;16.80;99.90;;;;;;5029285;28;20521;-69
2021/08/14 04:53:17;;;;;;;7.50;6.80;;;16.80;99.90;;;;;;5029579;28;20471;-69
2021/08/14 04:55:45;;;;;;;8.03;7.33;;;16.80;99.90;;;;;;5029032;28;20477;-69
2021/08/14 04:58:13;;;;;;;7.73;6.40;;;16.80;99.90;;;;;;5028394;28;20467;-69
2021/08/14 05:00:40;;;;;;;7.53;6.70;;;16.80;99.90;;;;;;5029295;28;20546;-69
2021/08/14 05:03:06;;;;;;;8.00;6.77;;;16.90;99.90;;;;;;5028695;28;20464;-69
2021/08/14 05:05:33;;;;;;;8.20;7.40;;;17.00;99.90;;;;;;5029636;28;20488;-68
2021/08/14 05:08:00;;;;;;;7.53;6.83;;;16.90;99.90;;;;;;5029364;28;20471;-69
2021/08/14 05:10:27;;;;;;;8.30;7.50;;;16.90;99.90;;;;;;5030071;28;20492;-69
2021/08/14 05:12:55;;;;;;;8.10;6.23;;;17.00;99.90;;;;;;5028581;28;20841;-69
2021/08/14 05:15:21;;;;;;;7.73;6.93;;;17.00;99.90;;;;;;5029872;28;20467;-69
2021/08/14 05:17:48;;;;;;;9.60;7.60;;;17.00;99.90;;;;;;5029346;28;20918;-69
2021/08/14 05:20:15;;;;;;;8.13;7.33;;;17.00;99.90;;;;;;5029853;28;20472;-69
2021/08/14 05:22:41;;;;;;;9.70;8.00;;;17.10;99.90;;;;;;5029695;28;20467;-69
2021/08/14 05:25:09;;;;;;;8.33;7.53;;;17.10;99.90;;;;;;5028924;28;20456;-69
2021/08/14 05:27:36;;;;;;;8.10;7.27;;;17.10;99.90;;;;;;5029346;28;20468;-69
2021/08/14 05:30:05;;;;;;;8.70;7.83;;;17.20;99.90;;;;;;5029263;28;20476;-69
2021/08/14 05:32:31;;;;;;;8.47;7.67;;;17.20;99.90;;;;;;5029820;28;20860;-69
2021/08/14 05:34:58;;;;;;;8.50;7.67;;;17.30;99.90;;;;;;5029540;28;20465;-69
2021/08/14 05:37:25;;;;;;;8.27;7.47;;;17.40;99.90;;;;;;5028898;28;20492;-70
2021/08/14 05:39:52;;;;;;;7.40;6.70;;;17.40;99.90;;;;;;5028845;28;20448;-68
2021/08/14 05:42:18;;;;;;;8.03;7.23;;;17.50;99.90;;;;;;5028787;28;20468;-69
2021/08/14 05:44:45;;;;;;;9.83;7.90;;;17.60;99.90;;;;;;5027547;28;20464;-69
2021/08/14 05:47:13;;;;;;;8.40;7.60;;;17.60;99.90;;;;;;5027689;28;20854;-69
2021/08/14 05:49:40;;;;;;;8.80;7.73;;;17.70;99.90;;;;;;5029057;28;20473;-69
2021/08/14 05:52:07;;;;;;;8.80;7.90;;;17.80;99.90;;;;;;5028601;28;20464;-69
2021/08/14 05:54:34;;;;;;;8.67;7.43;;;17.80;99.90;;;;;;5029872;28;20463;-69
2021/08/14 05:57:01;;;;;;;7.73;7.03;;;17.90;99.90;;;;;;5029067;28;20491;-70
2021/08/14 05:59:28;;;;;;;9.60;7.80;;;18.00;99.90;;;;;;5028709;28;20468;-69
2021/08/14 06:01:55;;;;;;;7.93;7.13;;;18.00;99.90;;;;;;5029244;28;20455;-70
2021/08/14 06:04:23;;;;;;;7.80;7.00;;;18.10;99.90;;;;;;5029135;28;20468;-69
2021/08/14 06:06:49;;;;;;;7.63;7.00;;;18.20;99.90;;;;;;5028980;28;20487;-69
2021/08/14 06:09:16;;;;;;;9.20;8.27;;;18.30;99.90;;;;;;5028882;28;20550;-69
2021/08/14 06:11:43;;;;;;;8.40;7.13;;;18.40;99.90;;;;;;5029126;28;20480;-69
2021/08/14 06:14:10;;;;;;;10.60;8.27;;;18.40;99.90;;;;;;5029052;28;20476;-69
2021/08/14 06:16:36;;;;;;;8.40;7.60;;;18.50;99.90;;;;;;5028925;28;20491;-69
2021/08/14 06:19:03;;;;;;;8.30;7.53;;;18.60;99.90;;;;;;5028642;28;20453;-69
2021/08/14 06:21:31;;;;;;;8.00;7.20;;;18.70;99.90;;;;;;5029161;28;20452;-72
2021/08/14 06:23:58;;;;;;;8.07;7.27;;;18.80;99.90;;;;;;5028879;28;20464;-72
2021/08/14 06:26:25;;;;;;;9.30;8.30;;;18.90;99.90;;;;;;5028923;28;20481;-72
2021/08/14 06:28:52;;;;;;;9.70;7.87;;;19.00;99.90;;;;;;5028193;28;20483;-72
2021/08/14 06:31:18;;;;;;;8.57;7.70;;;19.10;99.90;;;;;;5028554;28;20495;-71
2021/08/14 06:33:45;;;;;;;8.63;7.77;;;19.20;99.90;;;;;;5028732;28;20460;-71
2021/08/14 06:36:12;;;;;;;8.73;7.67;;;19.40;99.90;;;;;;5031643;28;20486;-71
2021/08/14 06:38:41;;;;;;;8.07;7.27;;;19.50;99.90;;;;;;5031905;28;20496;-71
2021/08/14 06:41:07;;;;;;;8.50;7.60;;;19.70;99.90;;;;;;5032281;28;20457;-76
2021/08/14 06:43:34;;;;;;;11.83;8.03;;;19.90;99.90;;;;;;5032376;28;20464;-71
2021/08/14 06:46:02;;;;;;;8.47;7.67;;;20.00;99.90;;;;;;5031825;28;20962;-71
2021/08/14 06:48:29;;;;;;;8.00;7.20;;;20.10;99.90;;;;;;5031748;28;20464;-71
2021/08/14 06:50:55;;;;;;;8.67;7.87;;;20.30;99.90;;;;;;5031919;28;20486;-71
2021/08/14 06:53:22;;;;;;;8.70;7.80;;;20.40;99.90;;;;;;5032027;28;20475;-71
2021/08/14 06:55:50;;;;;;;8.00;7.20;;;20.50;99.90;;;;;;5031222;28;20487;-71
2021/08/14 06:58:16;;;;;;;8.07;7.20;;;20.60;99.90;;;;;;5030817;28;20464;-71
2021/08/14 07:00:43;;;;;;;10.23;7.23;;;20.70;99.90;;;;;;5031527;28;20474;-71
2021/08/14 07:03:10;;;;;;;8.40;7.50;;;20.80;99.90;;;;;;5027909;28;20464;-71
2021/08/14 07:05:38;;;;;;;7.90;7.10;;;20.80;99.90;;;;;;5028729;28;20480;-71
2021/08/14 07:08:05;;;;;;;10.90;8.27;;;20.80;99.90;;;;;;5028638;28;20464;-71
2021/08/14 07:10:32;;;;;;;9.40;7.60;;;20.90;99.90;;;;;;5031533;28;20483;-69
2021/08/14 07:13:02;;;;;;;8.57;7.60;;;21.00;99.90;;;;;;5031257;28;20463;-69
2021/08/14 07:15:29;;;;;;;8.50;7.60;;;21.10;99.90;;;;;;5031001;28;20527;-69
2021/08/14 07:17:57;;;;;;;10.50;7.33;;;21.30;99.90;;;;;;5030794;28;20475;-68
2021/08/14 07:20:24;;;;;;;8.20;6.82;;;21.40;99.90;;;;;;5030344;28;20343;-69
2021/08/14 07:22:51;;;;;;;8.73;7.70;;;21.50;99.90;;;;;;5031485;28;20310;-68
2021/08/14 07:25:18;;;;;;;10.43;7.17;;;21.60;99.90;;;;;;5031335;28;20471;-68
2021/08/14 07:27:44;;;;;;;8.93;7.73;;;21.70;99.90;;;;;;5030780;28;20463;-68
2021/08/14 07:30:13;;;;;;;9.10;8.20;;;21.80;99.90;;;;;;5030699;28;20463;-69
2021/08/14 07:32:40;;;;;;;8.40;7.50;;;21.90;99.90;;;;;;5030802;28;20463;-68
2021/08/14 07:35:08;;;;;;;9.70;7.63;;;22.00;99.90;;;;;;5030255;28;20464;-68
2021/08/14 07:37:35;;;;;;;8.53;7.50;;;22.10;99.90;;;;;;5031011;28;20460;-70
2021/08/14 07:40:01;;;;;;;10.20;7.30;;;22.20;99.90;;;;;;5030279;28;20472;-69
2021/08/14 07:42:28;;;;;;;7.93;7.20;;;22.20;99.90;;;;;;5026827;28;20448;-69
2021/08/14 07:44:57;;;;;;;9.90;6.70;;;22.20;99.90;;;;;;5031048;28;20452;-69
2021/08/14 07:47:25;;;;;;;7.70;6.90;;;22.30;99.90;;;;;;5030601;28;20479;-69
2021/08/14 07:49:51;;;;;;;6.93;6.20;;;22.40;99.90;;;;;;5031465;28;20897;-69
2021/08/14 07:52:18;;;;;;;9.20;7.13;;;22.50;99.90;;;;;;5031315;28;20488;-69
2021/08/14 07:54:45;;;;;;;7.60;6.80;;;22.60;99.90;;;;;;5031107;28;20977;-70
2021/08/14 07:57:12;;;;;;;7.90;7.10;;;22.70;99.90;;;;;;5031276;28;20499;-69
2021/08/14 07:59:39;;;;;;;11.80;7.93;;;22.80;99.90;;;;;;5031046;28;20572;-70
2021/08/14 08:02:05;;;;;;;8.80;7.70;;;22.90;99.90;;;;;;5031035;28;20877;-69
2021/08/14 08:04:33;;;;;;;8.17;7.33;;;23.00;99.90;;;;;;5030024;28;20869;-69
2021/08/14 08:07:00;;;;;;;10.33;7.97;;;23.10;99.90;;;;;;5030936;28;20991;-69
2021/08/14 08:09:27;;;;;;;8.93;7.30;;;23.20;99.90;;;;;;5029687;28;20460;-70
2021/08/14 08:11:54;;;;;;;7.70;7.00;;;23.30;99.90;;;;;;5029867;28;20570;-69
2021/08/14 08:14:21;;;;;;;8.90;8.10;;;23.30;99.90;;;;;;5030119;28;20459;-69
2021/08/14 08:16:50;;;;;;;8.60;7.30;;;23.40;99.90;;;;;;5030503;28;20481;-69
2021/08/14 08:19:17;;;;;;;7.70;6.90;;;23.40;99.90;;;;;;5029904;28;20486;-69
2021/08/14 08:21:45;;;;;;;7.43;6.67;;;23.50;99.90;;;;;;5030513;28;20448;-69
2021/08/14 08:24:12;;;;;;;7.40;6.70;;;23.50;99.90;;;;;;5030147;28;20492;-69
2021/08/14 08:26:39;;;;;;;7.93;7.17;;;23.60;99.90;;;;;;5029104;28;20480;-69
2021/08/14 08:29:05;;;;;;;7.57;6.87;;;23.80;99.90;;;;;;5027988;28;20461;-69
2021/08/14 08:31:32;;;;;;;6.70;6.10;;;23.90;99.90;;;;;;5026950;28;20491;-69
2021/08/14 08:34:00;;;;;;;7.63;6.80;;;24.10;99.90;;;;;;5028705;28;20464;-69
2021/08/14 08:36:27;;;;;;;7.73;6.93;;;24.20;99.90;;;;;;5030475;28;20576;-69
2021/08/14 08:38:55;;;;;;;6.67;6.07;;;24.20;99.90;;;;;;5029672;28;20471;-69
2021/08/14 08:41:21;;;;;;;6.70;6.10;;;24.30;99.90;;;;;;5030666;28;20810;-69
2021/08/14 08:43:48;;;;;;;6.10;5.50;;;24.50;99.90;;;;;;5030466;28;20838;-69
2021/08/14 08:46:18;;;;;;;6.90;6.20;;;24.60;99.90;;;;;;5030462;28;20491;-69
2021/08/14 08:48:48;;;;;;;6.00;5.50;;;24.60;99.90;;;;;;5029696;28;20937;-69
2021/08/14 08:51:17;;;;;;;6.87;6.00;;;24.70;99.90;;;;;;5030151;28;20495;-69
2021/08/14 08:53:45;;;;;;;7.13;6.00;;;24.80;99.90;;;;;;5030036;28;20469;-69
2021/08/14 08:56:13;;;;;;;6.97;6.27;;;24.90;99.90;;;;;;5022144;28;20500;-69
2021/08/14 08:58:39;;;;;;;6.80;6.17;;;25.00;99.90;;;;;;5028595;28;20465;-68
2021/08/14 09:01:06;;;;;;;5.77;5.27;;;25.10;99.90;;;;;;5029797;28;20893;-69
2021/08/14 09:03:33;;;;;;;6.40;5.80;;;25.20;99.90;;;;;;5029974;28;20471;-69
2021/08/14 09:06:00;;;;;;;7.00;5.97;;;25.30;99.90;;;;;;5029644;28;20480;-69
2021/08/14 09:08:27;;;;;;;6.90;6.23;;;25.30;99.90;;;;;;5029225;28;20547;-69
2021/08/14 09:11:08;;;;;;;6.13;5.53;;;25.40;99.90;;;;;;5029950;28;20847;-69
2021/08/14 09:13:36;;;;;;;6.43;5.83;;;25.50;99.90;;;;;;5029818;28;20475;-69
2021/08/14 09:16:19;;;;;;;8.10;6.03;;;25.50;99.90;;;;;;5029523;28;20484;-69
2021/08/14 09:18:54;;;;;;;6.27;5.77;;;25.60;99.90;;;;;;5028808;28;20460;-69
2021/08/14 09:21:35;;;;;;;7.60;6.80;;;25.70;99.90;;;;;;5030001;28;20935;-69
2021/08/14 09:24:05;;;;;;;6.53;5.93;;;25.80;99.90;;;;;;5029515;28;20833;-69
2021/08/14 09:26:33;;;;;;;6.03;5.53;;;25.90;99.90;;;;;;5030064;28;20911;-69
2021/08/14 09:29:06;;;;;;;6.43;5.83;;;25.90;99.90;;;;;;5028771;28;20940;-69
2021/08/14 09:31:48;;;;;;;7.83;6.80;;;26.00;99.90;;;;;;5029608;28;20493;-69
2021/08/14 09:34:16;;;;;;;7.40;5.90;;;26.10;99.90;;;;;;5029483;28;20460;-69
2021/08/14 09:36:43;;;;;;;6.60;6.00;;;26.20;99.90;;;;;;5029584;28;20875;-69
2021/08/14 09:39:09;;;;;;;6.70;6.00;;;26.30;99.90;;;;;;5028649;28;20468;-69
2021/08/14 09:41:36;;;;;;;7.80;7.07;;;26.40;99.90;;;;;;5029510;28;20470;-69
2021/08/14 09:44:15;;;;;;;6.90;6.30;;;26.50;99.90;;;;;;5029105;28;20469;-69
2021/08/14 09:46:43;;;;;;;7.10;6.40;;;26.50;99.90;;;;;;5029386;28;20539;-69
2021/08/14 09:49:10;;;;;;;7.10;6.50;;;26.50;99.90;;;;;;5028560;28;20468;-69
2021/08/14 09:51:38;;;;;;;7.40;6.70;;;26.60;99.90;;;;;;5029148;28;20520;-69
2021/08/14 09:54:05;;;;;;;7.63;6.83;;;26.60;99.90;;;;;;5029169;28;20468;-69
2021/08/14 09:56:34;;;;;;;6.63;6.03;;;26.70;99.90;;;;;;5029467;28;20480;-68
2021/08/14 09:59:02;;;;;;;7.73;7.03;;;26.80;99.90;;;;;;5028628;28;20456;-69
2021/08/14 10:01:32;;;;;;;7.23;6.53;;;26.90;99.90;;;;;;5203681;22;20491;-72
2021/08/14 10:03:59;;;;;;;7.70;7.00;;;27.00;99.90;;;;;;5048542;28;20447;-71
2021/08/14 10:06:27;;;;;;;6.70;6.10;;;27.20;99.90;;;;;;5048911;28;20491;-72
2021/08/14 10:08:53;;;;;;;8.07;6.70;;;27.30;99.90;;;;;;5048445;28;20462;-72
2021/08/14 10:11:21;;;;;;;7.30;6.60;;;27.40;99.90;;;;;;5052821;28;20493;-71
2021/08/14 10:13:48;;;;;;;7.17;5.97;;;27.50;99.90;;;;;;5052725;28;20495;-71
2021/08/14 10:16:16;;;;;;;7.20;6.40;;;27.60;99.90;;;;;;5053083;28;20484;-71
2021/08/14 10:18:45;;;;;;;8.00;7.30;;;27.60;99.90;;;;;;5052505;28;20458;-71
2021/08/14 10:21:14;;;;;;;8.00;7.23;;;27.40;99.90;;;;;;5052927;28;20463;-71
2021/08/14 10:23:42;;;;;;;6.50;6.00;;;27.50;99.90;;;;;;5052897;28;20474;-72
2021/08/14 10:26:12;;;;;;;7.83;6.47;;;27.60;99.90;;;;;;5052590;28;20576;-72
2021/08/14 10:28:44;;;;;;;8.03;6.80;;;27.70;99.90;;;;;;5052382;28;20486;-71
2021/08/14 10:31:44;;;;;;;6.90;6.20;;;27.90;99.90;;;;;;5052569;28;20470;-72
2021/08/14 10:34:35;;;;;;;8.40;6.63;;;28.10;99.90;;;;;;5052415;28;20531;-71
2021/08/14 10:37:20;;;;;;;7.03;6.30;;;28.20;99.90;;;;;;5052191;28;20576;-72
2021/08/14 10:39:55;;;;;;;6.70;6.10;;;28.30;99.90;;;;;;5052329;28;20853;-71
2021/08/14 10:42:59;;;;;;;7.73;6.77;;;28.40;99.90;;;;;;5052170;28;20466;-72
2021/08/14 10:45:34;;;;;;;6.70;6.10;;;28.60;99.90;;;;;;5052140;28;20470;-71
2021/08/14 10:48:04;;;;;;;8.93;6.63;;;28.60;99.90;;;;;;5051288;28;20469;-68
2021/08/14 10:50:56;;;;;;;7.30;6.60;;;28.70;99.90;;;;;;5052146;28;20466;-71
2021/08/14 10:53:23;;;;;;;7.73;6.30;;;28.80;99.90;;;;;;5052191;28;20483;-71
2021/08/14 10:55:52;;;;;;;7.10;6.43;;;28.80;99.90;;;;;;5051731;28;21013;-72
2021/08/14 10:58:23;;;;;;;8.03;6.77;;;28.60;99.90;;;;;;5051600;28;20470;-72
2021/08/14 11:00:50;;;;;;;7.27;6.60;;;28.60;99.90;;;;;;5051786;28;20555;-73
2021/08/14 11:03:20;;;;;;;7.30;6.60;;;28.70;99.90;;;;;;5051886;28;20454;-71
2021/08/14 11:05:47;;;;;;;7.50;6.63;;;28.60;99.90;;;;;;5051685;28;21033;-70
2021/08/14 11:08:26;;;;;;;7.53;6.80;;;28.70;99.90;;;;;;5051277;28;20469;-71
2021/08/14 11:10:54;;;;;;;7.33;6.63;;;28.60;99.90;;;;;;5051564;28;20468;-70
2021/08/14 11:13:40;;;;;;;7.20;6.50;;;28.60;99.90;;;;;;5051506;28;20855;-71
2021/08/14 11:16:06;;;;;;;7.73;7.07;;;28.60;99.90;;;;;;5051307;28;20517;-70
2021/08/14 11:18:53;;;;;;;7.10;6.40;;;28.60;99.90;;;;;;5051049;28;21059;-71
2021/08/14 11:21:40;;;;;;;6.80;6.03;;;28.80;99.90;;;;;;5050743;28;20458;-70
2021/08/14 11:24:09;;;;;;;7.13;6.53;;;29.10;99.90;;;;;;5051021;28;20982;-71
2021/08/14 11:26:37;;;;;;;7.50;6.80;;;29.20;99.90;;;;;;5051520;28;20871;-71
2021/08/14 11:29:06;;;;;;;7.30;6.30;;;29.30;99.90;;;;;;5050735;28;21281;-70
2021/08/14 11:31:41;;;;;;;7.30;6.70;;;29.40;99.90;;;;;;5051375;28;20464;-71
2021/08/14 11:34:17;;;;;;;7.00;6.40;;;29.40;99.90;;;;;;5050921;28;20562;-71
2021/08/14 11:36:44;;;;;;;7.97;6.73;;;29.40;99.90;;;;;;5051415;28;20991;-71
2021/08/14 11:39:12;;;;;;;6.50;5.90;;;29.50;99.90;;;;;;5050757;28;20468;-70
2021/08/14 11:41:41;;;;;;;7.57;6.73;;;29.70;99.90;;;;;;5051027;28;20491;-71
2021/08/14 11:44:08;;;;;;;6.83;6.23;;;29.80;99.90;;;;;;5050535;28;20462;-71
2021/08/14 11:46:34;;;;;;;7.03;6.30;;;29.90;99.90;;;;;;5050648;28;20484;-71
2021/08/14 11:49:02;;;;;;;6.97;6.30;;;30.00;99.90;;;;;;5050112;28;20469;-69
2021/08/14 11:51:30;;;;;;;7.70;6.60;;;30.10;99.90;;;;;;5050804;28;20469;-71
2021/08/14 11:54:05;;;;;;;7.23;6.53;;;30.20;99.90;;;;;;5050670;28;20465;-71
2021/08/14 11:56:34;;;;;;;7.47;6.77;;;30.40;99.90;;;;;;5050787;28;20991;-70
2021/08/14 11:59:02;;;;;;;7.13;6.43;;;30.40;99.90;;;;;;5050306;28;20838;-72
2021/08/14 12:01:29;;;;;;;7.50;6.80;;;30.20;99.90;;;;;;5050314;28;20481;-71
2021/08/14 12:03:57;;;;;;;6.67;6.03;;;29.90;99.90;;;;;;5049789;28;20842;-71
2021/08/14 12:06:24;;;;;;;7.27;6.63;;;29.60;99.90;;;;;;5048603;28;20486;-72
2021/08/14 12:08:51;;;;;;;7.03;6.40;;;29.50;99.90;;;;;;5048929;28;20461;-71
2021/08/14 12:11:23;;;;;;;6.90;6.30;;;29.50;99.90;;;;;;5049631;28;20470;-70
2021/08/14 12:14:12;;;;;;;7.93;6.00;;;29.70;99.90;;;;;;5050120;28;20480;-71
2021/08/14 12:16:40;;;;;;;7.60;6.73;;;29.70;99.90;;;;;;5050186;28;20483;-71
2021/08/14 12:19:13;;;;;;;7.43;6.73;;;29.60;99.90;;;;;;5049133;28;20525;-72
2021/08/14 12:21:40;;;;;;;7.53;6.07;;;29.50;99.90;;;;;;5049811;28;20925;-71
2021/08/14 12:24:08;;;;;;;7.60;6.87;;;29.40;99.90;;;;;;5047375;28;20467;-72
2021/08/14 12:26:35;;;;;;;7.17;6.20;;;29.20;99.90;;;;;;5047747;28;20520;-72
2021/08/14 12:29:05;;;;;;;7.50;6.80;;;29.10;99.90;;;;;;5048286;28;20459;-72
2021/08/14 12:31:43;;;;;;;7.43;6.73;;;28.90;99.90;;;;;;5048722;28;20465;-72
2021/08/14 12:34:22;;;;;;;7.23;6.63;;;28.70;99.90;;;;;;5046729;28;20489;-72
2021/08/14 12:37:00;;;;;;;7.57;6.90;;;28.60;99.90;;;;;;5049586;28;20482;-71
2021/08/14 12:39:48;;;;;;;8.43;7.00;;;28.40;99.90;;;;;;5050023;28;20463;-72
2021/08/14 12:42:17;;;;;;;7.30;6.60;;;28.60;99.90;;;;;;5050303;28;20938;-70
2021/08/14 12:44:45;;;;;;;8.20;6.40;;;28.90;99.90;;;;;;5050043;28;20474;-72
2021/08/14 12:47:12;;;;;;;7.67;6.37;;;29.20;99.90;;;;;;5049055;28;20499;-69
2021/08/14 12:49:39;;;;;;;8.27;7.37;;;29.50;99.90;;;;;;5049233;28;20477;-71
2021/08/14 12:52:07;;;;;;;8.03;7.07;;;29.70;99.90;;;;;;5049524;28;20857;-72